Beaufort MCAS - Merritt Field Beaufort US
ICAO: KNBC
IATA: NBC
Category: Medium
Scheduled Services: No

Elevation: 37 ft
TransAlt. 18000 ft.

Airport Communications:
APP/DEP:118.45
ATIS:27.8
GND/CLNC DEL:128.15
BASE OPS:28.18
PMSV METRO:26.45
TWR:119.05

KNBC Zoom In..

If you have problems with the map follow the link
https://www.worldairports.se/pages/airport.php?
ICAO=KNBC

Runways:

(A) RW 05 length 12202 ft width 200 ft
---- / hdg 47

(B) RW 14 length 7999 ft width 200 ft
---- / hdg 140

(C) RW 23 length 12202 ft width 200 ft
---- / hdg 227

(D) RW 32 length 7999 ft width 200 ft
---- / hdg 320

Location; KNBC
Day. 24 / Time. 10.56 Zulu
* Altimeter: 30.30
* Temperature: 09° c. 48.2°f.
* Wind from: 000° Speed 00 kn.
Dewpoint: 08° c.
Visibility: 10 Statute Miles.
Clouds: Clear (automated report).

KNBC 241056Z AUTO 00000KT 10SM CLR 09/08 A3030 RMK AO2 SLP261 T00890083


Wind - Calm.

 
 
jpsmedia.com for Web Design worldairports.se 2019   terms of use